(°C)
10°
10°
11°
11°
(°C)
JJZ
ZJZ
Z
Z
Z
Z
Z
(km/h)
8-15
11-19
14-25
19-33
24-43
30-51
31-54
(mm)
0
0
0
0
0
0
0
(%)
3
7
10
13
17
20
14

Sun elevation

/ 19.3°
sun-icon
UV 13
05:54
20:09
Star mesec (324°)
04:47
17:19

METAR for Волден (K33V)

Vreme Conditions Temperatura/
Tačka rose
Vetar Vidljivost Prognoza Oblaci Pritisak Change Raw
VFR 4.2°C / -2.7°C 350º 3kt >10km - Broken Clouds 4600ft - K33V 081315Z AUTO 35003KT 10SM BKN046 BKN050 04/M03 A3001 RMK AO2 T00421027
VFR 1.9°C / -2.6°C variable 0kt >10km - Scattered Clouds 5000ft - K33V 081255Z AUTO 00000KT 10SM SCT050 02/M03 A3001 RMK AO2 T00191026
VFR 2.3°C / -3°C 120º 4kt >10km - Clear - K33V 081235Z AUTO 12004KT 10SM CLR 02/M03 A3000 RMK AO2 T00231030
VFR 1.7°C / -3.4°C 130º 3kt >10km - Clear - K33V 081215Z AUTO 13003KT 10SM CLR 02/M03 A3000 RMK AO2 T00171034
VFR 2.7°C / -3.2°C 200º 3kt >10km - Clear - K33V 081155Z AUTO 20003KT 10SM CLR 03/M03 A2999 RMK AO2 T00271032 10055 20013
VFR 2.7°C / -3.5°C 340º 8kt >10km - Clear - K33V 081135Z AUTO 34008KT 10SM CLR 03/M03 A2999 RMK AO2 T00271035
VFR 2.9°C / -3.2°C 330º 13kt >10km - Clear - K33V 081115Z AUTO 33013KT 10SM CLR 03/M03 A2998 RMK AO2 T00291032
VFR 3.9°C / -2.6°C 330º 16kt Gust 23kt >10km - Clear - K33V 081055Z AUTO 33016G23KT 10SM CLR 04/M03 A2998 RMK AO2 T00391026
VFR 4.1°C / -3.1°C 330º 18kt Gust 27kt >10km - Clear - K33V 081035Z AUTO 33018G27KT 10SM CLR 04/M03 A2996 RMK AO2 T00411031
VFR 4.8°C / -3°C 330º 17kt Gust 25kt >10km - Clear - K33V 081015Z AUTO 33017G25KT 10SM CLR 05/M03 A2996 RMK AO2 T00481030
VFR 5.5°C / -2.6°C 330º 22kt Gust 27kt >10km - Clear - K33V 080955Z AUTO 33022G27KT 10SM CLR 06/M03 A2995 RMK AO2 T00551026
VFR 4.1°C / -5.5°C 320º 8kt >10km - Clear - K33V 080935Z AUTO 32008KT 10SM CLR 04/M05 A2994 RMK AO2 T00411055
VFR 2.7°C / -5.9°C 350º 3kt >10km - Clear - K33V 080915Z AUTO 35003KT 10SM CLR 03/M06 A2993 RMK AO2 T00271059
VFR 1.9°C / -5.7°C 20º 3kt >10km - Clear - K33V 080855Z AUTO 02003KT 10SM CLR 02/M06 A2992 RMK AO2 T00191057
VFR 1.3°C / -5.2°C 350º 3kt >10km - Clear - K33V 080835Z AUTO 35003KT 10SM CLR 01/M05 A2991 RMK AO2 T00131052
VFR 2.4°C / -4.6°C 130º 3kt >10km - Clear - K33V 080815Z AUTO 13003KT 10SM CLR 02/M05 A2992 RMK AO2 T00241046
VFR 2.7°C / -4.8°C 130º 6kt >10km - Clear - K33V 080755Z AUTO 13006KT 10SM CLR 03/M05 A2991 RMK AO2 T00271048
VFR 2.7°C / -5°C 120º 6kt >10km - Clear - K33V 080735Z AUTO 12006KT 10SM CLR 03/M05 A2992 RMK AO2 T00271050
VFR 2.7°C / -4.6°C 120º 8kt >10km - Clear - K33V 080715Z AUTO 12008KT 10SM CLR 03/M05 A2993 RMK AO2 T00271046
VFR 2.7°C / -4.8°C 120º 8kt >10km - Clear - K33V 080655Z AUTO 12008KT 10SM CLR 03/M05 A2994 RMK AO2 T00271048
VFR 4.1°C / -4.8°C 130º 8kt >10km - Clear - K33V 080635Z AUTO 13008KT 10SM CLR 04/M05 A2994 RMK AO2 T00411048
VFR 4.3°C / -5°C 130º 6kt >10km - Clear - K33V 080615Z AUTO 13006KT 10SM CLR 04/M05 A2995 RMK AO2 T00431050
VFR 5.5°C / -5°C 110º 8kt >10km - Clear - K33V 080555Z AUTO 11008KT 10SM CLR 06/M05 A2995 RMK AO2 T00551050 10195 20055
VFR 6°C / -4.9°C 120º 7kt >10km - Clear - K33V 080535Z AUTO 12007KT 10SM CLR 06/M05 A2996 RMK AO2 T00601049

VFR

4.2°C / -2.7°C

[Više]
Vetar 350º 3kt
Vidljivost >10km
Prognoza -
Oblaci Broken Clouds 4600ft
Pritisak
Change -
Raw K33V 081315Z AUTO 35003KT 10SM BKN046 BKN050 04/M03 A3001 RMK AO2 T00421027

VFR

1.9°C / -2.6°C

[Više]
Vetar variable 0kt
Vidljivost >10km
Prognoza -
Oblaci Scattered Clouds 5000ft
Pritisak
Change -
Raw K33V 081255Z AUTO 00000KT 10SM SCT050 02/M03 A3001 RMK AO2 T00191026

VFR

2.3°C / -3°C

[Više]
Vetar 120º 4kt
Vidljivost >10km
Prognoza -
Oblaci Clear
Pritisak
Change -
Raw K33V 081235Z AUTO 12004KT 10SM CLR 02/M03 A3000 RMK AO2 T00231030

VFR

1.7°C / -3.4°C

[Više]
Vetar 130º 3kt
Vidljivost >10km
Prognoza -
Oblaci Clear
Pritisak
Change -
Raw K33V 081215Z AUTO 13003KT 10SM CLR 02/M03 A3000 RMK AO2 T00171034

VFR

2.7°C / -3.2°C

[Više]
Vetar 200º 3kt
Vidljivost >10km
Prognoza -
Oblaci Clear
Pritisak
Change -
Raw K33V 081155Z AUTO 20003KT 10SM CLR 03/M03 A2999 RMK AO2 T00271032 10055 20013

VFR

2.7°C / -3.5°C

[Više]
Vetar 340º 8kt
Vidljivost >10km
Prognoza -
Oblaci Clear
Pritisak
Change -
Raw K33V 081135Z AUTO 34008KT 10SM CLR 03/M03 A2999 RMK AO2 T00271035

VFR

2.9°C / -3.2°C

[Više]
Vetar 330º 13kt
Vidljivost >10km
Prognoza -
Oblaci Clear
Pritisak
Change -
Raw K33V 081115Z AUTO 33013KT 10SM CLR 03/M03 A2998 RMK AO2 T00291032

VFR

3.9°C / -2.6°C

[Više]
Vetar 330º 16kt Gust 23kt
Vidljivost >10km
Prognoza -
Oblaci Clear
Pritisak
Change -
Raw K33V 081055Z AUTO 33016G23KT 10SM CLR 04/M03 A2998 RMK AO2 T00391026

VFR

4.1°C / -3.1°C

[Više]
Vetar 330º 18kt Gust 27kt
Vidljivost >10km
Prognoza -
Oblaci Clear
Pritisak
Change -
Raw K33V 081035Z AUTO 33018G27KT 10SM CLR 04/M03 A2996 RMK AO2 T00411031

VFR

4.8°C / -3°C

[Više]
Vetar 330º 17kt Gust 25kt
Vidljivost >10km
Prognoza -
Oblaci Clear
Pritisak
Change -
Raw K33V 081015Z AUTO 33017G25KT 10SM CLR 05/M03 A2996 RMK AO2 T00481030

VFR

5.5°C / -2.6°C

[Više]
Vetar 330º 22kt Gust 27kt
Vidljivost >10km
Prognoza -
Oblaci Clear
Pritisak
Change -
Raw K33V 080955Z AUTO 33022G27KT 10SM CLR 06/M03 A2995 RMK AO2 T00551026

VFR

4.1°C / -5.5°C

[Više]
Vetar 320º 8kt
Vidljivost >10km
Prognoza -
Oblaci Clear
Pritisak
Change -
Raw K33V 080935Z AUTO 32008KT 10SM CLR 04/M05 A2994 RMK AO2 T00411055

VFR

2.7°C / -5.9°C

[Više]
Vetar 350º 3kt
Vidljivost >10km
Prognoza -
Oblaci Clear
Pritisak
Change -
Raw K33V 080915Z AUTO 35003KT 10SM CLR 03/M06 A2993 RMK AO2 T00271059

VFR

1.9°C / -5.7°C

[Više]
Vetar 20º 3kt
Vidljivost >10km
Prognoza -
Oblaci Clear
Pritisak
Change -
Raw K33V 080855Z AUTO 02003KT 10SM CLR 02/M06 A2992 RMK AO2 T00191057

VFR

1.3°C / -5.2°C

[Više]
Vetar 350º 3kt
Vidljivost >10km
Prognoza -
Oblaci Clear
Pritisak
Change -
Raw K33V 080835Z AUTO 35003KT 10SM CLR 01/M05 A2991 RMK AO2 T00131052

VFR

2.4°C / -4.6°C

[Više]
Vetar 130º 3kt
Vidljivost >10km
Prognoza -
Oblaci Clear
Pritisak
Change -
Raw K33V 080815Z AUTO 13003KT 10SM CLR 02/M05 A2992 RMK AO2 T00241046

VFR

2.7°C / -4.8°C

[Više]
Vetar 130º 6kt
Vidljivost >10km
Prognoza -
Oblaci Clear
Pritisak
Change -
Raw K33V 080755Z AUTO 13006KT 10SM CLR 03/M05 A2991 RMK AO2 T00271048

VFR

2.7°C / -5°C

[Više]
Vetar 120º 6kt
Vidljivost >10km
Prognoza -
Oblaci Clear
Pritisak
Change -
Raw K33V 080735Z AUTO 12006KT 10SM CLR 03/M05 A2992 RMK AO2 T00271050

VFR

2.7°C / -4.6°C

[Više]
Vetar 120º 8kt
Vidljivost >10km
Prognoza -
Oblaci Clear
Pritisak
Change -
Raw K33V 080715Z AUTO 12008KT 10SM CLR 03/M05 A2993 RMK AO2 T00271046

VFR

2.7°C / -4.8°C

[Više]
Vetar 120º 8kt
Vidljivost >10km
Prognoza -
Oblaci Clear
Pritisak
Change -
Raw K33V 080655Z AUTO 12008KT 10SM CLR 03/M05 A2994 RMK AO2 T00271048

VFR

4.1°C / -4.8°C

[Više]
Vetar 130º 8kt
Vidljivost >10km
Prognoza -
Oblaci Clear
Pritisak
Change -
Raw K33V 080635Z AUTO 13008KT 10SM CLR 04/M05 A2994 RMK AO2 T00411048

VFR

4.3°C / -5°C

[Više]
Vetar 130º 6kt
Vidljivost >10km
Prognoza -
Oblaci Clear
Pritisak
Change -
Raw K33V 080615Z AUTO 13006KT 10SM CLR 04/M05 A2995 RMK AO2 T00431050

VFR

5.5°C / -5°C

[Više]
Vetar 110º 8kt
Vidljivost >10km
Prognoza -
Oblaci Clear
Pritisak
Change -
Raw K33V 080555Z AUTO 11008KT 10SM CLR 06/M05 A2995 RMK AO2 T00551050 10195 20055

VFR

6°C / -4.9°C

[Više]
Vetar 120º 7kt
Vidljivost >10km
Prognoza -
Oblaci Clear
Pritisak
Change -
Raw K33V 080535Z AUTO 12007KT 10SM CLR 06/M05 A2996 RMK AO2 T00601049

Current satellite images for Волден, Сједињене Државе

Marker lokacije postavljen je na Волден. [Više]

The real-time satellite image combines visible light during daytime with infrared radiation during nighttime. At night, the image is not dark as infrared radiation can detect temperature differences. Unfortunately, low clouds and fog are difficult to distinguish from ground temperatures and thus can be almost invisible during the night. Meteosat satellite images for Europe are updated in real-time every 5 minutes. GOES-16/GOES-17 (North & South America) and Himawari (Asia) images update every 10 minutes.

Radar i padavine kratka prognoza za Волден

Marker lokacije postavljen je na Волден. Ova animacija prikazuje radar padavina za poslednji sat, kao i 1h prognozu. Moguće je da rominjanje i slab sneg ne budu vidljivi na ovom radaru. Intezitet padavina je predstavljen bojama koje varijaju od svetlo plave do jako ljubičaste.